createdAt,value
2023-04-16T00:09:31.550Z,4.27
2023-04-16T00:13:52.350Z,4.19
2023-04-16T00:18:19.803Z,4.11
2023-04-16T00:22:47.992Z,4.03
2023-04-16T00:26:54.153Z,3.95
2023-04-16T00:31:02.432Z,3.91
2023-04-16T00:35:31.120Z,3.87
2023-04-16T00:39:35.314Z,3.80
2023-04-16T00:44:01.805Z,3.75
2023-04-16T00:48:10.345Z,3.70
2023-04-16T00:52:38.244Z,3.62
2023-04-16T00:57:09.782Z,3.55
2023-04-16T01:01:27.342Z,3.51
2023-04-16T01:05:46.055Z,3.54
2023-04-16T01:09:50.469Z,3.58
2023-04-16T01:14:11.744Z,3.66
2023-04-16T01:18:43.824Z,3.73
2023-04-16T01:22:51.895Z,3.79
2023-04-16T01:27:23.931Z,3.81
2023-04-16T01:32:04.181Z,3.78
2023-04-16T01:36:29.415Z,3.72
2023-04-16T01:40:50.535Z,3.66
2023-04-16T01:45:08.139Z,3.58
2023-04-16T01:49:14.253Z,3.49
2023-04-16T01:53:19.580Z,3.40
2023-04-16T01:57:31.581Z,3.30
2023-04-16T02:01:43.838Z,3.25
2023-04-16T02:05:55.787Z,3.22
2023-04-16T02:10:24.535Z,3.18
2023-04-16T02:14:49.658Z,3.13
2023-04-16T02:19:29.426Z,3.11
2023-04-16T02:24:01.706Z,3.10
2023-04-16T02:28:29.760Z,3.06
2023-04-16T02:33:04.394Z,3.04
2023-04-16T02:37:37.096Z,3.02
2023-04-16T02:42:05.149Z,3.00
2023-04-16T02:46:37.504Z,2.95
2023-04-16T02:51:02.750Z,2.90
2023-04-16T02:55:30.830Z,2.88
2023-04-16T03:00:03.127Z,2.89
2023-04-16T03:08:17.155Z,2.92
2023-04-16T03:12:30.762Z,2.90
2023-04-16T03:16:56.065Z,2.89
2023-04-16T03:21:35.700Z,2.87
2023-04-16T03:25:42.639Z,2.86
2023-04-16T03:30:02.657Z,2.86
2023-04-16T03:34:23.789Z,2.85
2023-04-16T03:38:49.814Z,2.86
2023-04-16T03:43:33.749Z,2.87
2023-04-16T03:48:03.294Z,2.92
2023-04-16T03:52:13.879Z,2.95
2023-04-16T03:56:46.833Z,3.01
2023-04-16T04:01:18.617Z,3.09
2023-04-16T04:05:55.196Z,3.22
2023-04-16T04:10:37.917Z,3.83
2023-04-16T04:15:03.011Z,4.63
2023-04-16T04:19:09.026Z,5.31
2023-04-16T04:23:30.711Z,6.32
2023-04-16T04:27:40.398Z,7.80
2023-04-16T04:32:09.956Z,9.27
2023-04-16T04:36:39.371Z,10.32
2023-04-16T04:41:00.496Z,11.21
2023-04-16T04:45:04.717Z,12.38
2023-04-16T04:49:33.126Z,13.25
2023-04-16T04:53:52.397Z,13.93
2023-04-16T04:57:56.510Z,13.67
2023-04-16T05:02:05.115Z,12.79
2023-04-16T05:06:13.344Z,12.04
2023-04-16T05:10:20.940Z,11.41
2023-04-16T05:14:51.804Z,10.89
2023-04-16T05:18:50.895Z,10.62
2023-04-16T05:22:55.260Z,10.46
2023-04-16T05:27:19.621Z,10.37
2023-04-16T05:39:37.171Z,10.41
2023-04-16T05:43:47.097Z,10.49
2023-04-16T05:47:59.275Z,10.51
2023-04-16T05:52:18.987Z,10.51
2023-04-16T05:56:15.423Z,10.58
2023-04-16T06:00:41.314Z,10.74
2023-04-16T06:04:47.756Z,10.89
2023-04-16T06:08:26.438Z,11.12
2023-04-16T06:12:10.729Z,11.36
2023-04-16T06:15:45.572Z,11.57
2023-04-16T06:20:02.554Z,11.73
2023-04-16T06:23:12.260Z,11.87
2023-04-16T06:27:13.711Z,11.94
2023-04-16T06:30:24.550Z,11.92
2023-04-16T06:33:35.213Z,11.86
2023-04-16T06:37:08.361Z,11.74
2023-04-16T06:40:26.097Z,11.67
2023-04-16T06:44:22.030Z,11.61
2023-04-16T06:48:16.282Z,11.55
2023-04-16T06:51:36.427Z,11.66
2023-04-16T06:54:42.401Z,11.75
2023-04-16T06:57:49.520Z,11.91
2023-04-16T07:01:13.016Z,12.05
2023-04-16T07:08:53.225Z,12.13
2023-04-16T07:12:17.940Z,12.23
2023-04-16T07:15:23.845Z,12.21
2023-04-16T07:18:33.123Z,12.26
2023-04-16T07:21:45.139Z,12.29
2023-04-16T07:25:02.412Z,12.41
2023-04-16T07:28:28.743Z,12.50
2023-04-16T07:31:53.098Z,12.42
2023-04-16T07:34:57.260Z,12.47
2023-04-16T07:38:31.491Z,12.52
2023-04-16T07:42:02.828Z,12.56
2023-04-16T07:45:28.713Z,12.56
2023-04-16T07:48:49.676Z,12.60
2023-04-16T07:52:13.856Z,12.68
2023-04-16T07:55:19.007Z,12.68
2023-04-16T07:58:23.717Z,12.59
2023-04-16T08:01:36.152Z,12.55
2023-04-16T08:08:30.809Z,12.73
2023-04-16T08:11:51.468Z,12.83
2023-04-16T08:15:20.266Z,12.90
2023-04-16T08:18:31.662Z,12.94
2023-04-16T08:21:35.669Z,12.98
2023-04-16T08:24:38.749Z,12.97
2023-04-16T08:27:43.900Z,13.10
2023-04-16T08:30:46.898Z,13.37
2023-04-16T08:38:08.418Z,13.52
2023-04-16T08:41:15.966Z,13.54
2023-04-16T08:44:32.249Z,13.74
2023-04-16T08:47:39.158Z,13.93
2023-04-16T08:50:55.650Z,14.05
2023-04-16T08:54:04.358Z,14.28
2023-04-16T08:57:19.850Z,14.66
2023-04-16T09:00:42.079Z,15.07
2023-04-16T09:03:49.290Z,15.44
2023-04-16T09:07:10.283Z,15.63
2023-04-16T09:10:15.024Z,15.65
2023-04-16T09:13:22.927Z,15.57
2023-04-16T09:16:43.277Z,15.48
2023-04-16T09:20:06.578Z,15.17
2023-04-16T09:23:11.530Z,15.08
2023-04-16T09:26:23.286Z,14.98
2023-04-16T09:29:56.435Z,14.89
2023-04-16T09:33:25.339Z,14.83
2023-04-16T09:36:32.417Z,14.96
2023-04-16T09:39:36.303Z,15.18
2023-04-16T09:42:41.256Z,15.25
2023-04-16T09:45:52.040Z,15.19
2023-04-16T09:49:10.564Z,15.19
2023-04-16T09:52:43.423Z,15.33
2023-04-16T09:55:47.649Z,15.45
2023-04-16T09:58:51.152Z,15.62
2023-04-16T10:02:15.669Z,15.83
2023-04-16T10:05:28.088Z,16.14
2023-04-16T10:08:31.482Z,16.68
2023-04-16T10:11:35.012Z,16.91
2023-04-16T10:14:46.861Z,16.86
2023-04-16T10:17:53.125Z,16.65
2023-04-16T10:20:57.605Z,16.43
2023-04-16T10:24:00.717Z,16.23
2023-04-16T10:27:04.128Z,16.09
2023-04-16T10:30:09.868Z,16.03
2023-04-16T10:33:15.096Z,16.20
2023-04-16T10:36:43.076Z,16.47
2023-04-16T10:39:53.628Z,16.75
2023-04-16T10:43:01.165Z,16.84
2023-04-16T10:46:27.172Z,16.81
2023-04-16T10:49:32.168Z,16.84
2023-04-16T10:52:35.473Z,17.16
2023-04-16T10:56:17.530Z,17.39
2023-04-16T10:59:36.262Z,17.14
2023-04-16T11:03:08.892Z,16.96
2023-04-16T11:06:32.279Z,17.04
2023-04-16T11:09:59.763Z,17.35
2023-04-16T11:13:11.272Z,17.51
2023-04-16T11:16:42.931Z,17.37
2023-04-16T11:19:48.508Z,17.16
2023-04-16T11:22:58.775Z,16.95
2023-04-16T11:26:28.243Z,16.86
2023-04-16T11:29:32.535Z,16.97
2023-04-16T11:32:55.925Z,17.12
2023-04-16T11:36:01.817Z,17.41
2023-04-16T11:39:05.689Z,17.67
2023-04-16T11:42:23.258Z,17.88
2023-04-16T11:45:34.799Z,18.10
2023-04-16T11:49:28.011Z,18.39
2023-04-16T11:52:36.545Z,18.33
2023-04-16T11:55:57.446Z,18.05
2023-04-16T12:00:02.532Z,17.82
2023-04-16T12:03:47.443Z,17.56
2023-04-16T12:07:19.019Z,17.28
2023-04-16T12:10:35.313Z,17.09
2023-04-16T12:14:43.596Z,17.02
2023-04-16T12:18:27.430Z,17.07
2023-04-16T12:21:42.335Z,17.10
2023-04-16T12:24:56.783Z,17.22
2023-04-16T12:28:28.850Z,17.36
2023-04-16T12:31:40.792Z,17.44
2023-04-16T12:35:12.468Z,17.34
2023-04-16T12:38:56.886Z,17.19
2023-04-16T12:42:10.948Z,16.93
2023-04-16T12:45:26.931Z,16.82
2023-04-16T12:48:34.700Z,16.85
2023-04-16T12:52:04.530Z,16.90
2023-04-16T12:55:10.948Z,16.73
2023-04-16T12:58:54.347Z,16.69
2023-04-16T13:02:17.796Z,16.78
2023-04-16T13:05:45.797Z,16.85
2023-04-16T13:17:31.404Z,17.24
2023-04-16T13:20:39.357Z,17.23
2023-04-16T13:23:52.033Z,17.24
2023-04-16T13:27:05.193Z,17.21
2023-04-16T13:30:33.668Z,17.12
2023-04-16T13:34:26.105Z,16.98
2023-04-16T13:37:35.138Z,16.83
2023-04-16T13:40:42.774Z,16.79
2023-04-16T13:43:50.515Z,16.78
2023-04-16T13:47:03.056Z,16.78
2023-04-16T13:50:13.736Z,16.73
2023-04-16T13:53:42.111Z,16.63
2023-04-16T13:57:09.654Z,16.62
2023-04-16T14:00:28.317Z,16.65
2023-04-16T14:03:55.135Z,16.79
2023-04-16T14:07:39.959Z,16.90
2023-04-16T14:12:01.476Z,16.87
2023-04-16T14:15:45.261Z,16.60
2023-04-16T14:18:52.847Z,16.53
2023-04-16T14:22:18.489Z,16.60
2023-04-16T14:25:25.456Z,16.61
2023-04-16T14:28:47.946Z,16.59
2023-04-16T14:32:05.408Z,16.57
2023-04-16T14:35:35.122Z,16.57
2023-04-16T14:39:25.124Z,16.66
2023-04-16T14:42:30.394Z,16.75
2023-04-16T14:46:55.835Z,16.81
2023-04-16T14:50:08.563Z,16.93
2023-04-16T14:53:17.831Z,16.97
2023-04-16T14:56:28.805Z,17.06
2023-04-16T15:00:25.146Z,17.02
2023-04-16T15:04:57.331Z,16.94
2023-04-16T15:08:46.839Z,16.94
2023-04-16T15:12:10.899Z,16.97
2023-04-16T15:15:40.695Z,16.89
2023-04-16T15:19:22.859Z,16.81
2023-04-16T15:23:06.210Z,16.82
2023-04-16T15:26:11.753Z,16.85
2023-04-16T15:30:21.955Z,16.85
2023-04-16T15:33:40.232Z,16.81
2023-04-16T15:37:01.319Z,16.81
2023-04-16T15:40:07.956Z,16.71
2023-04-16T15:43:48.312Z,16.68
2023-04-16T15:47:25.851Z,16.64
2023-04-16T15:50:31.976Z,16.59
2023-04-16T15:54:19.441Z,16.52
2023-04-16T15:57:43.448Z,16.44
2023-04-16T16:05:09.128Z,16.25
2023-04-16T16:08:15.524Z,16.07
2023-04-16T16:11:44.463Z,15.98
2023-04-16T16:15:36.097Z,15.95
2023-04-16T16:18:55.043Z,15.93
2023-04-16T16:22:03.485Z,15.89
2023-04-16T16:25:37.979Z,15.84
2023-04-16T16:28:49.418Z,15.74
2023-04-16T16:32:41.002Z,15.62
2023-04-16T16:36:25.715Z,15.48
2023-04-16T16:40:25.994Z,15.39
2023-04-16T16:43:51.617Z,15.28
2023-04-16T16:47:08.257Z,15.16
2023-04-16T16:50:56.190Z,15.02
2023-04-16T16:54:22.649Z,14.87
2023-04-16T16:57:29.694Z,14.70
2023-04-16T17:00:33.075Z,14.56
2023-04-16T17:08:07.597Z,14.20
2023-04-16T17:11:28.106Z,14.07
2023-04-16T17:15:12.575Z,13.91
2023-04-16T17:18:34.862Z,13.77
2023-04-16T17:22:02.953Z,13.61
2023-04-16T17:26:16.236Z,13.38
2023-04-16T17:30:47.364Z,13.18
2023-04-16T17:34:37.125Z,13.01
2023-04-16T17:38:21.185Z,12.82
2023-04-16T17:42:35.509Z,12.65
2023-04-16T17:46:46.450Z,12.43
2023-04-16T17:51:21.874Z,12.23
2023-04-16T17:55:21.170Z,12.07
2023-04-16T17:59:07.495Z,11.95
2023-04-16T18:02:56.759Z,11.88
2023-04-16T18:06:54.824Z,11.81
2023-04-16T18:11:02.527Z,11.79
2023-04-16T18:15:11.750Z,11.73
2023-04-16T18:19:16.547Z,11.68
2023-04-16T18:23:48.120Z,11.58
2023-04-16T18:28:13.687Z,11.49
2023-04-16T18:32:06.789Z,11.43
2023-04-16T18:36:03.636Z,11.39
2023-04-16T18:40:08.319Z,11.33
2023-04-16T18:44:20.670Z,11.28
2023-04-16T18:48:34.622Z,11.24
2023-04-16T18:52:59.709Z,11.19
2023-04-16T18:56:47.803Z,11.15
2023-04-16T19:00:54.415Z,11.13
2023-04-16T19:05:11.554Z,11.10
2023-04-16T19:09:15.142Z,11.04
2023-04-16T19:13:21.639Z,10.99
2023-04-16T19:17:34.935Z,10.90
2023-04-16T19:22:01.850Z,10.79
2023-04-16T19:26:25.779Z,10.72
2023-04-16T19:30:48.594Z,10.69
2023-04-16T19:34:54.500Z,10.67
2023-04-16T19:39:16.705Z,10.58
2023-04-16T19:43:32.547Z,10.46
2023-04-16T19:47:56.872Z,10.37
2023-04-16T19:52:03.610Z,10.30
2023-04-16T19:56:11.964Z,10.23
2023-04-16T20:00:32.677Z,10.13
2023-04-16T20:04:53.602Z,10.01
2023-04-16T20:08:51.576Z,9.85
2023-04-16T20:13:17.404Z,9.66
2023-04-16T20:17:24.907Z,9.46
2023-04-16T20:21:49.365Z,9.28
2023-04-16T20:25:38.427Z,9.15
2023-04-16T20:30:09.972Z,9.00
2023-04-16T20:34:52.304Z,8.75
2023-04-16T20:44:11.856Z,8.26
2023-04-16T20:48:36.841Z,8.04
2023-04-16T20:52:41.512Z,7.84
2023-04-16T20:57:10.551Z,7.66
2023-04-16T21:01:17.039Z,7.50
2023-04-16T21:05:58.565Z,7.34
2023-04-16T21:10:30.708Z,7.20
2023-04-16T21:14:58.225Z,7.05
2023-04-16T21:19:02.426Z,6.93
2023-04-16T21:23:07.296Z,6.84
2023-04-16T21:27:33.048Z,6.77
2023-04-16T21:32:21.276Z,6.69
2023-04-16T21:36:45.390Z,6.59
2023-04-16T21:40:45.201Z,6.50
2023-04-16T21:45:10.504Z,6.43
2023-04-16T21:49:48.966Z,6.36
2023-04-16T21:54:14.944Z,6.31
2023-04-16T21:58:34.221Z,6.29
2023-04-16T22:02:40.415Z,6.27
2023-04-16T22:07:20.662Z,6.25
2023-04-16T22:11:45.363Z,6.22
2023-04-16T22:16:09.432Z,6.17
2023-04-16T22:20:16.719Z,6.17
2023-04-16T22:25:00.462Z,6.15
2023-04-16T22:29:23.812Z,6.10
2023-04-16T22:33:44.343Z,6.04
2023-04-16T22:37:42.878Z,5.96
2023-04-16T22:42:11.203Z,5.89
2023-04-16T22:46:20.896Z,5.79
2023-04-16T22:50:49.462Z,5.65
2023-04-16T22:55:18.507Z,5.52
2023-04-16T22:59:23.235Z,5.46
2023-04-16T23:03:45.698Z,5.35
2023-04-16T23:08:29.293Z,5.23
2023-04-16T23:12:33.871Z,5.12
2023-04-16T23:16:57.856Z,5.06
2023-04-16T23:21:02.092Z,5.02
2023-04-16T23:25:38.887Z,4.94
2023-04-16T23:30:07.689Z,4.87
2023-04-16T23:33:46.487Z,4.78
2023-04-16T23:38:11.118Z,4.69
2023-04-16T23:42:35.452Z,4.57
2023-04-16T23:47:00.240Z,4.49
2023-04-16T23:51:44.652Z,4.42
2023-04-16T23:55:57.886Z,4.38
